createdAt,value
2016-10-18T00:00:35.198Z,26.81
2016-10-18T00:01:35.200Z,26.85
2016-10-18T00:02:35.265Z,26.92
2016-10-18T00:03:35.337Z,26.88
2016-10-18T00:04:35.427Z,26.9
2016-10-18T00:05:35.441Z,26.83
2016-10-18T00:06:35.477Z,26.84
2016-10-18T00:07:35.592Z,26.81
2016-10-18T00:08:35.641Z,26.66
2016-10-18T00:09:35.677Z,26.7
2016-10-18T00:10:35.733Z,26.68
2016-10-18T00:11:35.805Z,26.7
2016-10-18T00:12:35.801Z,26.73
2016-10-18T00:13:35.940Z,26.68
2016-10-18T00:14:35.916Z,26.74
2016-10-18T00:15:35.993Z,26.84
2016-10-18T00:16:36.083Z,26.8
2016-10-18T00:17:36.081Z,26.63
2016-10-18T00:18:36.180Z,26.65
2016-10-18T00:19:36.245Z,26.71
2016-10-18T00:20:36.298Z,26.66
2016-10-18T00:21:36.326Z,26.7
2016-10-18T00:22:36.360Z,26.71
2016-10-18T00:23:36.458Z,26.65
2016-10-18T00:24:36.471Z,26.7
2016-10-18T00:25:36.547Z,26.71
2016-10-18T00:26:36.638Z,26.52
2016-10-18T00:27:36.643Z,26.45
2016-10-18T00:28:36.702Z,26.59
2016-10-18T00:29:36.784Z,26.53
2016-10-18T00:30:36.833Z,26.51
2016-10-18T00:31:36.864Z,26.37
2016-10-18T00:32:36.924Z,26.29
2016-10-18T00:33:36.953Z,26.41
2016-10-18T00:34:37.044Z,26.43
2016-10-18T00:35:37.089Z,26.52
2016-10-18T00:36:37.169Z,26.44
2016-10-18T00:37:37.257Z,26.51
2016-10-18T00:38:37.252Z,26.52
2016-10-18T00:39:37.313Z,26.51
2016-10-18T00:40:37.322Z,26.41
2016-10-18T00:41:37.446Z,26.41
2016-10-18T00:42:37.497Z,26.38
2016-10-18T00:43:37.534Z,26.44
2016-10-18T00:44:37.591Z,26.36
2016-10-18T00:45:37.646Z,26.33
2016-10-18T00:46:37.701Z,26.38
2016-10-18T00:47:37.737Z,26.37
2016-10-18T00:48:37.799Z,26.31
2016-10-18T00:49:37.884Z,26.23
2016-10-18T00:50:37.904Z,26.29
2016-10-18T00:51:37.960Z,26.28
2016-10-18T00:52:38.014Z,26.28
2016-10-18T00:53:38.100Z,26.28
2016-10-18T00:54:38.177Z,26.25
2016-10-18T00:55:38.194Z,26.25
2016-10-18T00:56:38.250Z,26.26
2016-10-18T00:57:38.283Z,26.18
2016-10-18T00:58:38.347Z,26.18
2016-10-18T00:59:38.417Z,26.25
2016-10-18T01:00:38.468Z,26.21
2016-10-18T01:01:38.546Z,26.29
2016-10-18T01:02:38.595Z,26.13
2016-10-18T01:03:38.607Z,26.13
2016-10-18T01:04:38.765Z,26.09
2016-10-18T01:05:38.744Z,26.03
2016-10-18T01:06:38.826Z,26.09
2016-10-18T01:07:38.867Z,26.09
2016-10-18T01:08:38.906Z,26.16
2016-10-18T01:09:38.951Z,26.22
2016-10-18T01:10:38.996Z,26.21
2016-10-18T01:11:39.105Z,26.09
2016-10-18T01:12:39.143Z,26.18
2016-10-18T01:13:39.190Z,26.13
2016-10-18T01:14:39.255Z,26.06
2016-10-18T01:15:39.296Z,26.03
2016-10-18T01:16:39.358Z,26.02
2016-10-18T01:17:39.421Z,25.9
2016-10-18T01:18:39.459Z,25.84
2016-10-18T01:19:39.527Z,25.6
2016-10-18T01:20:39.603Z,25.62
2016-10-18T01:21:39.610Z,25.62
2016-10-18T01:22:39.690Z,25.59
2016-10-18T01:23:39.734Z,25.5
2016-10-18T01:24:39.767Z,25.63
2016-10-18T01:25:39.820Z,25.66
2016-10-18T01:26:39.863Z,25.59
2016-10-18T01:27:39.942Z,25.58
2016-10-18T01:28:39.976Z,25.62
2016-10-18T01:29:40.056Z,25.48
2016-10-18T01:30:40.116Z,25.44
2016-10-18T01:31:40.142Z,25.5
2016-10-18T01:32:40.257Z,25.48
2016-10-18T01:33:40.258Z,25.5
2016-10-18T01:34:40.917Z,25.44
2016-10-18T01:35:40.429Z,25.38
2016-10-18T01:36:40.436Z,25.38
2016-10-18T01:37:40.500Z,25.4
2016-10-18T01:38:40.563Z,25.26
2016-10-18T01:39:40.613Z,25.13
2016-10-18T01:40:40.644Z,25.16
2016-10-18T01:41:40.680Z,25.28
2016-10-18T01:42:40.796Z,25.17
2016-10-18T01:43:41.296Z,25.23
2016-10-18T01:44:40.845Z,25.13
2016-10-18T01:45:40.909Z,25.13
2016-10-18T01:46:40.973Z,25.16
2016-10-18T01:47:41.035Z,25.04
2016-10-18T01:48:41.168Z,25.01
2016-10-18T01:49:41.122Z,24.76
2016-10-18T01:50:41.692Z,24.63
2016-10-18T01:51:41.219Z,24.61
2016-10-18T01:52:41.284Z,24.35
2016-10-18T01:53:41.400Z,24.1
2016-10-18T01:54:41.957Z,24.11
2016-10-18T01:55:41.449Z,24.1
2016-10-18T01:56:41.535Z,24.1
2016-10-18T01:57:41.587Z,24.2
2016-10-18T01:58:41.601Z,24.36
2016-10-18T01:59:41.682Z,24.38
2016-10-18T02:00:41.725Z,24.4
2016-10-18T02:01:41.781Z,24.45
2016-10-18T02:02:41.795Z,24.43
2016-10-18T02:03:41.852Z,24.53
2016-10-18T02:04:42.029Z,24.65
2016-10-18T02:05:42.013Z,24.65
2016-10-18T02:06:42.059Z,24.68
2016-10-18T02:07:42.081Z,24.68
2016-10-18T02:08:42.194Z,24.76
2016-10-18T02:09:42.732Z,24.68
2016-10-18T02:10:42.249Z,24.65
2016-10-18T02:11:42.272Z,24.57
2016-10-18T02:12:42.376Z,24.58
2016-10-18T02:13:42.429Z,24.54
2016-10-18T02:14:42.466Z,24.57
2016-10-18T02:15:42.511Z,24.57
2016-10-18T02:16:42.620Z,24.61
2016-10-18T02:17:42.627Z,24.61
2016-10-18T02:18:42.650Z,24.65
2016-10-18T02:19:42.793Z,24.63
2016-10-18T02:20:42.824Z,24.66
2016-10-18T02:21:42.816Z,24.55
2016-10-18T02:22:42.902Z,24.51
2016-10-18T02:23:42.930Z,24.47
2016-10-18T02:24:43.004Z,24.35
2016-10-18T02:25:43.091Z,24.35
2016-10-18T02:26:43.109Z,24.38
2016-10-18T02:27:43.183Z,24.43
2016-10-18T02:28:43.220Z,24.47
2016-10-18T02:29:43.293Z,24.32
2016-10-18T02:30:43.290Z,24.39
2016-10-18T02:31:44.172Z,24.42
2016-10-18T02:32:43.430Z,24.45
2016-10-18T02:33:43.510Z,24.39
2016-10-18T02:34:43.547Z,24.4
2016-10-18T02:35:43.603Z,24.42
2016-10-18T02:36:43.708Z,24.55
2016-10-18T02:37:43.703Z,24.5
2016-10-18T02:38:43.767Z,24.57
2016-10-18T02:39:43.787Z,24.63
2016-10-18T02:40:43.873Z,24.57
2016-10-18T02:41:43.956Z,24.6
2016-10-18T02:42:43.991Z,24.47
2016-10-18T02:43:43.993Z,24.32
2016-10-18T02:44:44.052Z,24.32
2016-10-18T02:45:44.161Z,24.39
2016-10-18T02:46:44.200Z,24.38
2016-10-18T02:47:44.235Z,24.35
2016-10-18T02:48:44.317Z,24.32
2016-10-18T02:49:44.357Z,24.33
2016-10-18T02:50:44.379Z,24.32
2016-10-18T02:51:44.485Z,24.26
2016-10-18T02:52:44.490Z,24.16
2016-10-18T02:53:44.581Z,24.18
2016-10-18T02:54:44.644Z,24.18
2016-10-18T02:55:44.642Z,24.3
2016-10-18T02:56:44.749Z,24.29
2016-10-18T02:57:44.743Z,24.18
2016-10-18T02:58:44.823Z,24.17
2016-10-18T02:59:44.872Z,24.06
2016-10-18T03:00:44.916Z,24.06
2016-10-18T03:01:45.020Z,23.78
2016-10-18T03:02:45.065Z,23.78
2016-10-18T03:03:45.134Z,23.78
2016-10-18T03:04:45.176Z,23.76
2016-10-18T03:05:45.244Z,23.84
2016-10-18T03:06:45.235Z,23.87
2016-10-18T03:07:45.347Z,23.95
2016-10-18T03:08:45.382Z,23.87
2016-10-18T03:09:45.465Z,23.83
2016-10-18T03:10:45.443Z,23.92
2016-10-18T03:11:45.515Z,23.83
2016-10-18T03:12:45.556Z,23.68
2016-10-18T03:13:45.630Z,23.71
2016-10-18T03:14:45.676Z,23.8
2016-10-18T03:15:46.344Z,23.81
2016-10-18T03:16:45.795Z,23.84
2016-10-18T03:17:45.853Z,23.83
2016-10-18T03:18:46.394Z,23.91
2016-10-18T03:19:45.930Z,23.76
2016-10-18T03:20:45.973Z,23.84
2016-10-18T03:21:46.062Z,23.76
2016-10-18T03:22:46.128Z,23.77
2016-10-18T03:23:46.171Z,23.74
2016-10-18T03:24:46.207Z,23.5
2016-10-18T03:25:46.224Z,23.43
2016-10-18T03:26:46.351Z,23.4
2016-10-18T03:27:46.366Z,23.39
2016-10-18T03:28:46.470Z,23.37
2016-10-18T03:29:46.448Z,23.37
2016-10-18T03:30:46.567Z,23.36
2016-10-18T03:31:46.638Z,23.27
2016-10-18T03:32:46.603Z,23.39
2016-10-18T03:33:46.694Z,23.43
2016-10-18T03:34:46.724Z,23.46
2016-10-18T03:35:46.783Z,23.4
2016-10-18T03:36:46.887Z,23.13
2016-10-18T03:37:46.891Z,23.25
2016-10-18T03:38:46.974Z,23.32
2016-10-18T03:39:47.535Z,23.32
2016-10-18T03:40:47.110Z,23.25
2016-10-18T03:41:47.144Z,23.15
2016-10-18T03:42:47.135Z,23.12
2016-10-18T03:43:47.181Z,23.27
2016-10-18T03:44:47.750Z,23.27
2016-10-18T03:45:47.349Z,23.25
2016-10-18T03:46:47.345Z,23.21
2016-10-18T03:47:47.415Z,23.37
2016-10-18T03:48:47.507Z,23.36
2016-10-18T03:49:47.516Z,23.44
2016-10-18T03:50:47.590Z,23.44
2016-10-18T03:51:47.633Z,23.56
2016-10-18T03:52:47.689Z,23.62
2016-10-18T03:53:47.748Z,23.69
2016-10-18T03:54:47.796Z,23.63
2016-10-18T03:55:48.424Z,23.66
2016-10-18T03:56:47.901Z,23.62
2016-10-18T03:57:47.964Z,23.63
2016-10-18T03:58:48.007Z,23.58
2016-10-18T03:59:49.105Z,23.46
2016-10-18T04:00:48.160Z,23.47
2016-10-18T04:01:48.170Z,23.43
2016-10-18T04:02:48.178Z,23.4
2016-10-18T04:03:48.304Z,23.46
2016-10-18T04:04:48.348Z,23.47
2016-10-18T04:05:48.383Z,23.54
2016-10-18T04:06:48.452Z,23.47
2016-10-18T04:07:48.486Z,23.48
2016-10-18T04:08:48.545Z,23.5
2016-10-18T04:09:48.590Z,23.58
2016-10-18T04:10:49.168Z,23.54
2016-10-18T04:11:48.737Z,23.61
2016-10-18T04:12:48.758Z,23.65
2016-10-18T04:13:48.870Z,23.69
2016-10-18T04:14:48.919Z,23.62
2016-10-18T04:15:48.876Z,23.63
2016-10-18T04:16:48.978Z,23.55
2016-10-18T04:17:49.027Z,23.55
2016-10-18T04:18:49.124Z,23.59
2016-10-18T04:19:49.115Z,23.61
2016-10-18T04:20:49.167Z,23.62
2016-10-18T04:21:49.284Z,23.66
2016-10-18T04:22:49.296Z,23.69
2016-10-18T04:23:49.366Z,23.76
2016-10-18T04:24:49.409Z,23.63
2016-10-18T04:25:49.481Z,23.63
2016-10-18T04:26:49.502Z,23.73
2016-10-18T04:27:49.516Z,23.62
2016-10-18T04:28:49.585Z,23.63
2016-10-18T04:29:49.676Z,23.77
2016-10-18T04:30:49.715Z,23.68
2016-10-18T04:31:49.764Z,23.63
2016-10-18T04:32:49.798Z,23.74
2016-10-18T04:33:49.880Z,23.69
2016-10-18T04:34:49.963Z,23.69
2016-10-18T04:35:50.023Z,23.68
2016-10-18T04:36:50.060Z,23.47
2016-10-18T04:37:50.067Z,23.46
2016-10-18T04:38:50.143Z,23.48
2016-10-18T04:39:50.200Z,23.55
2016-10-18T04:40:50.755Z,23.56
2016-10-18T04:41:50.294Z,23.56
2016-10-18T04:42:50.303Z,23.59
2016-10-18T04:43:50.366Z,23.58
2016-10-18T04:44:50.447Z,23.61
2016-10-18T04:45:50.497Z,23.58
2016-10-18T04:46:50.539Z,23.56
2016-10-18T04:47:50.638Z,23.54
2016-10-18T04:48:50.635Z,23.58
2016-10-18T04:49:50.696Z,23.51
2016-10-18T04:50:51.357Z,23.41
2016-10-18T04:51:50.785Z,23.4
2016-10-18T04:52:50.880Z,23.36
2016-10-18T04:53:50.893Z,23.36
2016-10-18T04:54:50.989Z,23.46
2016-10-18T04:55:51.012Z,23.44
2016-10-18T04:56:51.143Z,23.43
2016-10-18T04:57:51.155Z,23.24
2016-10-18T04:58:51.198Z,23.21
2016-10-18T04:59:51.241Z,23.1
2016-10-18T05:00:51.365Z,23.08
2016-10-18T05:01:51.420Z,23.15
2016-10-18T05:02:51.397Z,23.27
2016-10-18T05:03:51.471Z,23.21
2016-10-18T05:04:51.529Z,23.23
2016-10-18T05:05:51.563Z,23.27
2016-10-18T05:06:51.587Z,23.25
2016-10-18T05:07:51.698Z,23.25
2016-10-18T05:08:51.749Z,23.43
2016-10-18T05:09:51.780Z,23.39
2016-10-18T05:10:51.832Z,23.39
2016-10-18T05:11:51.846Z,23.36
2016-10-18T05:12:52.496Z,23.4
2016-10-18T05:13:51.956Z,23.44
2016-10-18T05:14:52.040Z,23.47
2016-10-18T05:15:52.085Z,23.51
2016-10-18T05:16:52.140Z,23.44
2016-10-18T05:17:52.219Z,23.36
2016-10-18T05:18:52.255Z,23.34
2016-10-18T05:19:52.420Z,23.37
2016-10-18T05:20:52.341Z,23.27
2016-10-18T05:21:52.454Z,23.21
2016-10-18T05:22:52.442Z,23.23
2016-10-18T05:23:52.506Z,23.21
2016-10-18T05:24:52.588Z,23.28
2016-10-18T05:25:52.659Z,23.09
2016-10-18T05:26:52.685Z,23.08
2016-10-18T05:27:52.721Z,23.08
2016-10-18T05:28:52.855Z,23.1
2016-10-18T05:29:52.849Z,23.28
2016-10-18T05:30:52.962Z,23.13
2016-10-18T05:31:52.942Z,23.2
2016-10-18T05:32:52.961Z,23.27
2016-10-18T05:33:53.022Z,23.13
2016-10-18T05:34:53.064Z,23.18
2016-10-18T05:35:53.219Z,23.18
2016-10-18T05:36:53.173Z,23.31
2016-10-18T05:37:53.817Z,23.21
2016-10-18T05:38:53.341Z,23.28
2016-10-18T05:39:53.359Z,23.4
2016-10-18T05:40:53.452Z,23.39
2016-10-18T05:41:53.452Z,23.46
2016-10-18T05:42:53.502Z,23.41
2016-10-18T05:43:53.559Z,23.43
2016-10-18T05:44:53.619Z,23.58
2016-10-18T05:45:53.694Z,23.51
2016-10-18T05:46:53.800Z,23.62
2016-10-18T05:47:53.758Z,23.68
2016-10-18T05:48:53.848Z,23.63
2016-10-18T05:49:53.952Z,23.71
2016-10-18T05:50:53.904Z,23.66
2016-10-18T05:51:54.009Z,23.51
2016-10-18T05:52:54.020Z,23.55
2016-10-18T05:53:54.098Z,23.51
2016-10-18T05:54:54.184Z,23.56
2016-10-18T05:55:54.185Z,23.47
2016-10-18T05:56:54.306Z,23.5
2016-10-18T05:57:54.318Z,23.47
2016-10-18T05:58:54.355Z,23.48
2016-10-18T05:59:54.397Z,23.47
2016-10-18T06:00:54.543Z,23.48
2016-10-18T06:01:54.536Z,23.51
2016-10-18T06:02:54.596Z,23.51
2016-10-18T06:03:54.634Z,23.54
2016-10-18T06:04:54.701Z,23.47
2016-10-18T06:05:54.734Z,23.56
2016-10-18T06:06:55.371Z,23.51
2016-10-18T06:07:54.830Z,23.41
2016-10-18T06:08:54.888Z,23.4
2016-10-18T06:09:54.971Z,23.48
2016-10-18T06:10:55.022Z,23.37
2016-10-18T06:11:55.051Z,23.43
2016-10-18T06:12:55.130Z,23.37
2016-10-18T06:13:55.158Z,23.37
2016-10-18T06:14:55.206Z,23.4
2016-10-18T06:15:55.279Z,23.43
2016-10-18T06:16:55.358Z,23.46
2016-10-18T06:17:55.381Z,23.39
2016-10-18T06:18:55.475Z,23.46
2016-10-18T06:19:55.484Z,23.4
2016-10-18T06:20:55.554Z,23.44
2016-10-18T06:21:55.587Z,23.24
2016-10-18T06:22:55.645Z,23.32
2016-10-18T06:23:55.665Z,23.41
2016-10-18T06:24:55.769Z,23.39
2016-10-18T06:25:55.858Z,23.28
2016-10-18T06:26:55.859Z,23.36
2016-10-18T06:27:55.905Z,23.31
2016-10-18T06:28:55.952Z,23.21
2016-10-18T06:29:56.038Z,23.25
2016-10-18T06:30:56.112Z,23.23
2016-10-18T06:31:56.132Z,23.09
2016-10-18T06:32:56.215Z,23.15
2016-10-18T06:33:56.212Z,23.1
2016-10-18T06:34:56.312Z,23.09
2016-10-18T06:35:56.337Z,23.1
2016-10-18T06:36:56.406Z,23.09
2016-10-18T06:37:56.447Z,23.17
2016-10-18T06:38:56.534Z,23.15
2016-10-18T06:39:56.563Z,23.15
2016-10-18T06:40:56.617Z,23.15
2016-10-18T06:41:56.691Z,23.1
2016-10-18T06:42:56.847Z,23.13
2016-10-18T06:43:56.837Z,23.09
2016-10-18T06:44:56.831Z,23.08
2016-10-18T06:45:57.063Z,23.13
2016-10-18T06:46:57.655Z,23.13
2016-10-18T06:47:57.025Z,23.06
2016-10-18T06:48:56.999Z,23.09
2016-10-18T06:49:57.216Z,23.15
2016-10-18T06:50:57.182Z,23.09
2016-10-18T06:51:57.320Z,23.13
2016-10-18T06:52:57.312Z,23.13
2016-10-18T06:53:57.315Z,23.13
2016-10-18T06:54:57.345Z,23.12
2016-10-18T06:55:57.521Z,23.09
2016-10-18T06:56:57.445Z,23.27
2016-10-18T06:57:57.535Z,23.31
2016-10-18T06:58:57.577Z,23.21
2016-10-18T06:59:57.672Z,23.23
2016-10-18T07:00:57.690Z,23.13
2016-10-18T07:01:57.714Z,23.17
2016-10-18T07:02:57.853Z,23.1
2016-10-18T07:03:58.000Z,23.15
2016-10-18T07:04:57.885Z,23.17
2016-10-18T07:05:57.990Z,23.12
2016-10-18T07:06:57.979Z,23.09
2016-10-18T07:07:58.149Z,23.1
2016-10-18T07:08:58.219Z,23.09
2016-10-18T07:09:58.165Z,23.05
2016-10-18T07:10:58.282Z,23.05
2016-10-18T07:11:58.300Z,23.15
2016-10-18T07:12:58.418Z,23.08
2016-10-18T07:13:58.383Z,23.09
2016-10-18T07:16:01.729Z,23.21
2016-10-18T07:16:44.318Z,23.25
2016-10-18T07:17:44.336Z,23.28
2016-10-18T07:18:27.025Z,23.25
2016-10-18T07:19:27.108Z,23.2
2016-10-18T07:20:27.146Z,23.18
2016-10-18T07:21:27.199Z,23.08
2016-10-18T07:22:27.203Z,23.1
2016-10-18T07:23:27.264Z,23.08
2016-10-18T07:24:27.359Z,23.13
2016-10-18T07:25:27.384Z,23.13
2016-10-18T07:26:27.430Z,23.09
2016-10-18T07:27:27.527Z,23.13
2016-10-18T07:28:27.555Z,23.1
2016-10-18T07:29:27.603Z,23.09
2016-10-18T07:30:27.650Z,23.25
2016-10-18T07:31:27.792Z,23.25
2016-10-18T07:32:27.749Z,23.36
2016-10-18T07:33:27.816Z,23.37
2016-10-18T07:34:27.856Z,23.37
2016-10-18T07:35:27.928Z,23.23
2016-10-18T07:36:27.973Z,23.32
2016-10-18T07:37:28.003Z,23.28
2016-10-18T07:38:28.076Z,23.31
2016-10-18T07:39:28.143Z,23.28
2016-10-18T07:40:28.717Z,23.31
2016-10-18T07:41:28.260Z,23.31
2016-10-18T07:42:28.310Z,23.34
2016-10-18T07:43:28.334Z,23.34
2016-10-18T07:44:28.393Z,23.41
2016-10-18T07:45:28.501Z,23.32
2016-10-18T07:46:28.540Z,23.44
2016-10-18T07:47:28.621Z,23.34
2016-10-18T07:48:29.143Z,23.34
2016-10-18T07:49:28.736Z,23.36
2016-10-18T07:50:28.714Z,23.43
2016-10-18T07:51:28.808Z,23.36
2016-10-18T07:52:28.851Z,23.37
2016-10-18T07:53:28.928Z,23.39
2016-10-18T07:54:28.961Z,23.36
2016-10-18T07:55:28.995Z,23.32
2016-10-18T07:56:29.060Z,23.31
2016-10-18T07:57:29.072Z,23.27
2016-10-18T07:58:29.125Z,23.21
2016-10-18T07:59:29.235Z,23.34
2016-10-18T08:00:29.272Z,23.34
2016-10-18T08:01:29.316Z,23.31
2016-10-18T08:02:29.399Z,23.41
2016-10-18T08:03:29.445Z,23.41
2016-10-18T08:04:29.584Z,23.43
2016-10-18T08:05:29.555Z,23.44
2016-10-18T08:06:29.566Z,23.41
2016-10-18T08:07:29.739Z,23.43
2016-10-18T08:08:30.263Z,23.44
2016-10-18T08:09:30.270Z,23.36
2016-10-18T08:10:29.777Z,23.32
2016-10-18T08:11:29.869Z,23.2
2016-10-18T08:12:29.999Z,23.23
2016-10-18T08:13:29.952Z,23.23
2016-10-18T08:14:29.999Z,23.24
2016-10-18T08:15:30.054Z,23.28
2016-10-18T08:16:30.164Z,23.23
2016-10-18T08:17:30.150Z,23.18
2016-10-18T08:18:30.207Z,23.25
2016-10-18T08:19:30.317Z,23.27
2016-10-18T08:20:30.314Z,23.24
2016-10-18T08:21:30.391Z,23.31
2016-10-18T08:22:30.471Z,23.37
2016-10-18T08:23:30.539Z,23.4
2016-10-18T08:24:31.080Z,23.34
2016-10-18T08:25:31.185Z,23.31
2016-10-18T08:26:31.197Z,23.28
2016-10-18T08:27:30.659Z,23.24
2016-10-18T08:28:31.284Z,23.23
2016-10-18T08:29:30.830Z,23.12
2016-10-18T08:30:30.873Z,23.09
2016-10-18T08:31:30.914Z,22.99
2016-10-18T08:32:30.975Z,23.06
2016-10-18T08:33:30.999Z,22.91
2016-10-18T08:34:31.084Z,23
2016-10-18T08:35:31.114Z,23.05
2016-10-18T08:36:31.228Z,22.94
2016-10-18T08:37:31.250Z,22.91
2016-10-18T08:38:31.304Z,22.93
2016-10-18T08:39:31.352Z,22.91
2016-10-18T08:40:31.444Z,23.03
2016-10-18T08:41:31.441Z,22.88
2016-10-18T08:42:31.492Z,22.96
2016-10-18T08:43:31.572Z,22.99
2016-10-18T08:44:31.607Z,22.91
2016-10-18T08:45:31.715Z,22.87
2016-10-18T08:46:31.791Z,22.87
2016-10-18T08:47:32.316Z,22.99
2016-10-18T08:48:31.846Z,22.96
2016-10-18T08:49:32.422Z,22.99
2016-10-18T08:50:31.957Z,22.98
2016-10-18T08:51:32.235Z,22.93
2016-10-18T08:52:32.096Z,22.93
2016-10-18T08:53:32.116Z,22.87
2016-10-18T08:54:32.180Z,22.85
2016-10-18T08:55:32.840Z,22.98
2016-10-18T08:56:33.054Z,22.99
2016-10-18T08:57:33.165Z,22.98
2016-10-18T08:58:33.736Z,23
2016-10-18T08:59:33.480Z,23.05
2016-10-18T09:00:33.504Z,23.05
2016-10-18T09:01:33.527Z,23.08
2016-10-18T09:02:34.788Z,23.03
2016-10-18T09:03:34.619Z,23.06
2016-10-18T09:04:35.513Z,23.12
2016-10-18T09:05:35.567Z,23.02
2016-10-18T09:06:35.587Z,23.08
2016-10-18T09:07:34.534Z,23.1
2016-10-18T09:08:34.503Z,23.1
2016-10-18T09:10:03.650Z,23.13
2016-10-18T09:11:01.558Z,23.1
2016-10-18T09:11:35.691Z,23.08
2016-10-18T09:12:36.525Z,23.12
2016-10-18T09:14:07.625Z,23.13
2016-10-18T09:14:40.699Z,23.12
2016-10-18T09:19:48.633Z,23.27
2016-10-18T09:19:59.514Z,23.24
2016-10-18T09:20:59.581Z,23.34
2016-10-18T09:21:59.608Z,23.37
2016-10-18T09:22:59.641Z,23.43
2016-10-18T09:23:59.695Z,23.32
2016-10-18T09:24:59.719Z,23.43
2016-10-18T09:25:59.782Z,23.41
2016-10-18T09:26:59.815Z,23.46
2016-10-18T09:27:59.933Z,23.43
2016-10-18T09:29:00.456Z,23.4
2016-10-18T09:30:00.011Z,23.46
2016-10-18T09:31:00.045Z,23.36
2016-10-18T09:32:00.143Z,23.41
2016-10-18T09:33:00.676Z,23.43
2016-10-18T09:34:00.236Z,23.39
2016-10-18T09:35:00.271Z,23.4
2016-10-18T09:36:00.303Z,23.39
2016-10-18T09:37:00.357Z,23.46
2016-10-18T09:38:00.647Z,23.44
2016-10-18T09:39:00.457Z,23.55
2016-10-18T09:40:00.532Z,23.47
2016-10-18T09:41:00.619Z,23.54
2016-10-18T09:42:00.668Z,23.55
2016-10-18T09:43:00.882Z,23.56
2016-10-18T09:44:00.762Z,23.58
2016-10-18T09:45:01.026Z,23.62
2016-10-18T09:46:01.380Z,23.68
2016-10-18T09:47:00.919Z,23.66
2016-10-18T09:48:00.929Z,23.81
2016-10-18T09:49:01.795Z,23.81
2016-10-18T09:50:01.863Z,23.98
2016-10-18T09:51:01.343Z,23.96
2016-10-18T09:52:01.779Z,23.91
2016-10-18T09:53:02.026Z,23.95
2016-10-18T09:54:02.048Z,23.92
2016-10-18T09:55:02.784Z,23.98
2016-10-18T09:56:02.738Z,23.96
2016-10-18T09:57:41.730Z,24.06
2016-10-18T09:58:06.843Z,24.08
2016-10-18T09:59:07.773Z,24.06
2016-10-18T10:00:09.082Z,24.05
2016-10-18T10:01:08.709Z,24.06
2016-10-18T10:03:30.767Z,24.13
2016-10-18T10:04:26.777Z,24.2
2016-10-18T10:05:26.832Z,24.17
2016-10-18T10:07:26.895Z,24.2
2016-10-18T10:08:42.767Z,24.29
2016-10-18T10:09:42.767Z,24.26
2016-10-18T10:11:11.856Z,24.28
2016-10-18T10:12:11.915Z,24.33
2016-10-18T10:12:41.753Z,24.29
2016-10-18T10:14:01.812Z,24.35
2016-10-18T10:15:17.878Z,24.32
2016-10-18T10:15:48.780Z,24.38
2016-10-18T10:16:41.825Z,24.35
2016-10-18T10:19:02.879Z,24.32
2016-10-18T10:19:49.836Z,24.45
2016-10-18T10:20:49.869Z,24.48
2016-10-18T10:21:49.802Z,24.55
2016-10-18T10:22:49.758Z,24.53
2016-10-18T10:27:04.713Z,24.7
2016-10-18T10:27:57.814Z,24.68
2016-10-18T10:29:09.702Z,24.7
2016-10-18T10:32:24.770Z,24.66
2016-10-18T10:35:37.874Z,24.54
2016-10-18T10:36:43.886Z,24.61
2016-10-18T10:38:21.739Z,24.65
2016-10-18T10:39:14.865Z,24.51
2016-10-18T10:40:18.743Z,24.61
2016-10-18T10:41:20.878Z,24.6
2016-10-18T10:42:39.912Z,24.63
2016-10-18T10:43:18.956Z,24.65
2016-10-18T10:44:19.040Z,24.77
2016-10-18T10:45:19.905Z,24.74
2016-10-18T10:46:18.877Z,24.7
2016-10-18T10:47:18.951Z,24.66
2016-10-18T10:48:18.982Z,24.61
2016-10-18T10:49:17.844Z,24.66
2016-10-18T10:50:18.238Z,24.65
2016-10-18T10:51:17.935Z,24.73
2016-10-18T10:52:17.940Z,24.73
2016-10-18T10:53:18.103Z,24.73
2016-10-18T10:54:19.937Z,24.69
2016-10-18T10:55:20.805Z,24.68
2016-10-18T10:56:20.088Z,24.74
2016-10-18T10:57:18.913Z,24.8
2016-10-18T10:58:21.812Z,24.74
2016-10-18T10:59:19.030Z,24.84
2016-10-18T11:00:19.054Z,24.92
2016-10-18T11:01:19.938Z,24.99
2016-10-18T11:02:19.083Z,24.91
2016-10-18T11:03:26.994Z,25.06
2016-10-18T11:04:20.118Z,25.08
2016-10-18T11:05:19.124Z,25.18
2016-10-18T11:06:19.221Z,25.18
2016-10-18T11:07:18.873Z,25.26
2016-10-18T11:08:18.896Z,25.25
2016-10-18T11:09:18.366Z,25.29
2016-10-18T11:10:19.037Z,25.33
2016-10-18T11:11:18.980Z,25.32
2016-10-18T11:12:19.762Z,25.48
2016-10-18T11:13:19.763Z,25.51
2016-10-18T11:14:35.832Z,25.63
2016-10-18T11:15:19.921Z,25.62
2016-10-18T11:16:19.857Z,25.63
2016-10-18T11:17:20.028Z,25.58
2016-10-18T11:18:21.991Z,25.63
2016-10-18T11:20:21.800Z,25.77
2016-10-18T11:21:19.814Z,25.81
2016-10-18T11:22:22.757Z,25.85
2016-10-18T11:23:19.713Z,25.87
2016-10-18T11:24:20.706Z,25.91
2016-10-18T11:25:23.025Z,26.03
2016-10-18T11:26:20.237Z,26.07
2016-10-18T11:36:15.517Z,26.37
2016-10-18T11:36:48.384Z,26.37
2016-10-18T11:37:47.775Z,26.48
2016-10-18T11:38:48.500Z,26.52
2016-10-18T11:39:48.975Z,26.58
2016-10-18T11:40:47.853Z,26.66
2016-10-18T11:41:48.106Z,26.7
2016-10-18T11:42:48.404Z,26.71
2016-10-18T11:43:47.812Z,26.75
2016-10-18T11:44:48.826Z,26.78
2016-10-18T11:47:53.796Z,26.95
2016-10-18T11:48:39.997Z,26.9
2016-10-18T11:49:40.864Z,26.96
2016-10-18T11:50:27.957Z,26.92
2016-10-18T11:51:28.835Z,26.96
2016-10-18T11:54:43.786Z,27.12
2016-10-18T11:56:11.856Z,27.2
2016-10-18T11:56:33.865Z,27.11
2016-10-18T12:00:23.815Z,27.45
2016-10-18T12:01:52.875Z,27.45
2016-10-18T12:05:07.843Z,27.63
2016-10-18T12:06:55.916Z,27.77
2016-10-18T12:11:03.906Z,28.1
2016-10-18T12:12:00.771Z,28.14
2016-10-18T12:12:26.740Z,28.05
2016-10-18T12:13:26.221Z,28.17
2016-10-18T12:14:26.615Z,28.27
2016-10-18T12:15:26.677Z,28.17
2016-10-18T12:16:27.115Z,28.29
2016-10-18T12:17:26.255Z,28.17
2016-10-18T12:18:27.003Z,28.22
2016-10-18T12:19:27.003Z,28.1
2016-10-18T12:20:26.411Z,28.14
2016-10-18T12:21:26.472Z,28.3
2016-10-18T12:22:26.873Z,28.33
2016-10-18T12:23:28.060Z,28.38
2016-10-18T12:24:26.105Z,28.38
2016-10-18T12:25:26.319Z,28.51
2016-10-18T12:26:26.234Z,28.59
2016-10-18T12:27:26.878Z,28.54
2016-10-18T12:28:27.812Z,28.7
2016-10-18T12:29:28.739Z,28.67
2016-10-18T12:30:32.071Z,28.75
2016-10-18T12:31:27.544Z,28.78
2016-10-18T12:32:27.598Z,28.84
2016-10-18T12:33:28.699Z,28.88
2016-10-18T12:34:28.617Z,28.91
2016-10-18T12:35:27.641Z,29.01
2016-10-18T12:36:27.638Z,29.04
2016-10-18T12:37:27.680Z,29.07
2016-10-18T12:38:27.651Z,29.13
2016-10-18T12:39:42.604Z,29.22
2016-10-18T12:41:37.631Z,29.47
2016-10-18T12:42:36.500Z,29.45
2016-10-18T12:44:08.500Z,29.44
2016-10-18T12:44:37.516Z,29.44
2016-10-18T12:45:36.646Z,29.6
2016-10-18T12:47:18.517Z,29.66
2016-10-18T12:47:48.511Z,29.69
2016-10-18T12:48:37.619Z,29.71
2016-10-18T12:52:58.495Z,29.95
2016-10-18T12:54:27.499Z,30.08
2016-10-18T12:54:45.523Z,30.08
2016-10-18T12:58:27.562Z,30.12
2016-10-18T12:59:20.576Z,30.13
2016-10-18T13:01:29.506Z,30.24
2016-10-18T13:05:06.487Z,30.37
2016-10-18T13:05:40.618Z,30.43
2016-10-18T13:16:47.600Z,30.48
2016-10-18T13:17:34.561Z,30.68
2016-10-18T13:18:34.602Z,30.63
2016-10-18T13:23:33.544Z,30.87
2016-10-18T13:24:47.470Z,30.94
2016-10-18T13:25:04.550Z,30.99
2016-10-18T13:26:09.457Z,30.88
2016-10-18T13:29:06.731Z,31.02
2016-10-18T13:31:03.570Z,31.09
2016-10-18T13:31:34.615Z,31.12
2016-10-18T13:32:43.553Z,31.1
2016-10-18T13:34:33.544Z,31.31
2016-10-18T13:36:33.674Z,31.25
2016-10-18T13:38:33.571Z,31.29
2016-10-18T13:39:31.717Z,31.34
2016-10-18T13:40:45.638Z,31.43
2016-10-18T13:41:45.685Z,31.49
2016-10-18T13:42:57.501Z,31.51
2016-10-18T13:43:32.482Z,31.49
2016-10-18T13:45:34.589Z,31.47
2016-10-18T13:46:39.555Z,31.46
2016-10-18T13:47:34.749Z,31.55
2016-10-18T13:48:34.792Z,31.54
2016-10-18T13:49:35.660Z,31.56
2016-10-18T13:50:41.672Z,31.52
2016-10-18T13:51:32.593Z,31.64
2016-10-18T13:52:34.687Z,31.62
2016-10-18T13:53:34.716Z,31.56
2016-10-18T13:54:33.738Z,31.56
2016-10-18T13:55:34.636Z,31.66
2016-10-18T13:56:46.565Z,31.77
2016-10-18T13:57:46.640Z,31.64
2016-10-18T13:58:45.547Z,31.62
2016-10-18T13:59:34.670Z,31.55
2016-10-18T14:00:54.757Z,31.51
2016-10-18T14:01:34.707Z,31.66
2016-10-18T14:02:34.861Z,31.76
2016-10-18T14:04:06.736Z,31.76
2016-10-18T14:04:50.843Z,31.71